createdAt,value
2017-06-24T00:07:05.742Z,0
2017-06-24T00:17:19.845Z,0
2017-06-24T00:27:33.757Z,0
2017-06-24T00:37:48.108Z,0
2017-06-24T00:48:02.572Z,0
2017-06-24T00:58:17.198Z,0
2017-06-24T01:08:30.982Z,0
2017-06-24T01:18:46.556Z,0
2017-06-24T01:29:01.964Z,0
2017-06-24T01:39:16.937Z,0
2017-06-24T01:49:32.503Z,0
2017-06-24T01:59:46.761Z,0
2017-06-24T02:10:00.938Z,0
2017-06-24T02:20:15.481Z,0
2017-06-24T02:30:29.757Z,4
2017-06-24T02:40:43.899Z,12
2017-06-24T02:50:58.589Z,44
2017-06-24T03:01:13.954Z,100
2017-06-24T03:11:28.129Z,244
2017-06-24T03:21:42.897Z,504
2017-06-24T03:31:56.930Z,776
2017-06-24T03:42:10.967Z,1132
2017-06-24T03:52:26.490Z,1392
2017-06-24T04:02:41.156Z,1560
2017-06-24T04:12:55.222Z,2244
2017-06-24T04:23:10.631Z,2480
2017-06-24T04:33:25.738Z,3452
2017-06-24T04:43:41.044Z,5124
2017-06-24T04:53:55.521Z,10672
2017-06-24T05:04:10.113Z,8488
2017-06-24T05:14:24.772Z,5312
2017-06-24T05:24:39.512Z,5880
2017-06-24T05:34:54.824Z,10324
2017-06-24T05:45:10.388Z,10648
2017-06-24T05:55:25.910Z,8836
2017-06-24T06:05:40.271Z,10076
2017-06-24T06:15:56.015Z,9040
2017-06-24T06:26:11.492Z,10088
2017-06-24T06:36:26.897Z,10708
2017-06-24T06:46:42.636Z,14496
2017-06-24T06:56:57.962Z,26112
2017-06-24T07:07:12.549Z,22336
2017-06-24T07:17:27.617Z,22464
2017-06-24T07:27:42.366Z,24768
2017-06-24T07:37:57.260Z,29536
2017-06-24T07:48:12.119Z,26624
2017-06-24T07:58:27.262Z,36608
2017-06-24T08:08:42.359Z,28384
2017-06-24T08:18:57.293Z,28704
2017-06-24T08:29:12.875Z,26688
2017-06-24T08:39:28.519Z,38592
2017-06-24T08:49:44.166Z,38432
2017-06-24T08:59:58.231Z,46368
2017-06-24T09:10:12.645Z,20384
2017-06-24T09:20:26.781Z,20384
2017-06-24T09:30:40.857Z,19936
2017-06-24T09:40:55.979Z,26016
2017-06-24T09:51:10.912Z,24640
2017-06-24T10:01:24.670Z,20768
2017-06-24T10:11:38.530Z,23424
2017-06-24T10:21:54.169Z,23072
2017-06-24T10:32:09.740Z,19456
2017-06-24T10:42:23.695Z,23136
2017-06-24T10:52:38.989Z,21792
2017-06-24T11:02:53.960Z,37952
2017-06-24T11:13:08.519Z,45952
2017-06-24T11:23:22.907Z,28832
2017-06-24T11:33:38.275Z,26464
2017-06-24T11:43:53.407Z,29376
2017-06-24T11:54:07.418Z,25152
2017-06-24T12:04:22.114Z,17004
2017-06-24T12:14:37.466Z,11632
2017-06-24T12:24:51.942Z,11980
2017-06-24T12:35:06.804Z,11804
2017-06-24T12:45:20.611Z,14620
2017-06-24T12:55:35.069Z,15188
2017-06-24T13:05:50.652Z,16248
2017-06-24T13:16:04.589Z,12276
2017-06-24T13:26:20.013Z,8816
2017-06-24T13:36:34.825Z,9464
2017-06-24T13:46:48.882Z,8884
2017-06-24T13:57:03.150Z,11528
2017-06-24T14:07:17.204Z,14556
2017-06-24T14:17:32.741Z,17472
2017-06-24T14:27:47.100Z,21696
2017-06-24T14:38:01.937Z,22304
2017-06-24T14:48:16.270Z,25856
2017-06-24T14:58:31.817Z,16464
2017-06-24T15:08:47.295Z,10372
2017-06-24T15:19:01.951Z,11872
2017-06-24T15:29:16.376Z,19584
2017-06-24T15:39:30.348Z,13608
2017-06-24T15:49:44.444Z,18048
2017-06-24T15:59:59.943Z,15180
2017-06-24T16:10:14.925Z,14184
2017-06-24T16:20:29.348Z,15700
2017-06-24T16:30:43.843Z,26368
2017-06-24T16:40:58.082Z,18688
2017-06-24T16:51:13.463Z,6160
2017-06-24T17:01:27.431Z,12628
2017-06-24T17:11:42.137Z,12328
2017-06-24T17:21:57.421Z,5720
2017-06-24T17:32:12.047Z,7676
2017-06-24T17:42:27.214Z,6160
2017-06-24T17:52:42.771Z,4904
2017-06-24T18:02:58.315Z,3132
2017-06-24T18:13:13.123Z,3228
2017-06-24T18:23:28.787Z,772
2017-06-24T18:33:44.376Z,1416
2017-06-24T18:43:59.274Z,1996
2017-06-24T18:54:14.707Z,2516
2017-06-24T19:04:29.325Z,1120
2017-06-24T19:14:43.997Z,492
2017-06-24T19:24:58.580Z,700
2017-06-24T19:35:13.222Z,404
2017-06-24T19:45:28.328Z,188
2017-06-24T19:55:42.119Z,116
2017-06-24T20:05:56.530Z,40
2017-06-24T20:16:10.331Z,20
2017-06-24T20:26:24.261Z,4
2017-06-24T20:36:39.524Z,0
2017-06-24T20:46:53.743Z,0
2017-06-24T20:57:08.660Z,0
2017-06-24T21:07:23.620Z,0
2017-06-24T21:17:39.144Z,0
2017-06-24T21:27:53.583Z,0
2017-06-24T21:38:07.389Z,0
2017-06-24T21:48:22.356Z,0
2017-06-24T21:58:37.680Z,0
2017-06-24T22:08:53.099Z,0
2017-06-24T22:19:07.137Z,0
2017-06-24T22:29:21.136Z,0
2017-06-24T22:39:35.134Z,0
2017-06-24T22:49:49.018Z,0
2017-06-24T23:00:03.592Z,0
2017-06-24T23:10:18.672Z,0
2017-06-24T23:20:33.048Z,0
2017-06-24T23:30:48.498Z,0
2017-06-24T23:41:04.073Z,0
2017-06-24T23:51:18.840Z,0
